Time;durP1;ratioP1;P1;durP2;ratioP2;P2;SDS_P1;SDS_P2;PMS_P1;PMS_P2;Temp;Humidity;BMP_temperature;BMP_pressure;BME280_temperature;BME280_humidity;BME280_pressure;Samples;Min_cycle;Max_cycle;Signal;HPM_P1;HPM_P2
2021/12/07 00:01:20;;;;;;;23.92;14.18;;;;;;;-146.64;100.00;39947.72;5065849;28;20021;-76
2021/12/07 00:03:46;;;;;;;25.75;14.50;;;;;;;-146.64;100.00;39974.34;5065632;28;20025;-76
2021/12/07 00:06:11;;;;;;;18.45;12.90;;;;;;;-146.64;100.00;39939.53;5064692;28;20031;-75
2021/12/07 00:08:45;;;;;;;19.40;12.05;;;;;;;-146.64;100.00;39964.09;5070257;28;20417;-75
2021/12/07 00:11:11;;;;;;;20.73;11.68;;;;;;;-146.64;100.00;39996.84;5072249;28;20032;-75
2021/12/07 00:13:39;;;;;;;20.67;10.85;;;;;;;-146.64;100.00;39992.75;5064064;28;20526;-76
2021/12/07 00:16:07;;;;;;;29.33;11.55;;;;;;;-146.64;100.00;40021.41;5066860;28;20408;-75
2021/12/07 00:18:33;;;;;;;20.13;10.77;;;;;;;-146.64;100.00;39972.28;5071569;28;20051;-75
2021/12/07 00:20:59;;;;;;;24.48;11.43;;;;;;;-146.64;100.00;40009.13;5062140;28;20021;-75
2021/12/07 00:23:24;;;;;;;25.67;10.32;;;;;;;-146.64;100.00;39986.63;5069113;28;20462;-75
2021/12/07 00:25:50;;;;;;;24.38;8.32;;;;;;;-146.64;100.00;40000.94;5053514;28;20039;-75
2021/12/07 00:28:18;;;;;;;21.30;9.00;;;;;;;-146.64;100.00;39984.56;5065801;28;20507;-76
2021/12/07 00:30:44;;;;;;;24.60;7.00;;;;;;;-146.64;100.00;39990.72;5065221;28;20061;-75
2021/12/07 00:35:38;;;;;;;25.38;5.50;;;;;;;-146.64;100.00;39960.00;5072855;28;20029;-75
2021/12/07 00:38:07;;;;;;;23.00;5.88;;;;;;;-146.64;100.00;39957.97;5060979;28;20067;-74
2021/12/07 00:40:32;;;;;;;26.23;6.50;;;;;;;-146.64;100.00;39931.34;5086124;28;20017;-75
2021/12/07 00:43:01;;;;;;;17.73;3.78;;;;;;;-146.64;100.00;39947.72;5070549;28;20036;-75
2021/12/07 00:45:28;;;;;;;23.65;3.50;;;;;;;-146.64;100.00;39884.28;5055248;28;20100;-75
2021/12/07 00:47:54;;;;;;;23.33;4.15;;;;;;;-146.64;100.00;39900.66;5068675;28;20031;-76
2021/12/07 00:50:22;;;;;;;25.30;3.85;;;;;;;-146.64;100.00;39853.56;5069679;28;20037;-76
2021/12/07 00:52:48;;;;;;;29.27;3.40;;;;;;;-146.64;100.00;39839.25;5063060;28;20070;-75
2021/12/07 00:55:18;;;;;;;23.45;4.05;;;;;;;-146.64;100.00;39804.44;5072567;28;20032;-75
2021/12/07 00:57:43;;;;;;;26.05;4.63;;;;;;;-146.64;100.00;39843.34;5057247;28;20028;-75
2021/12/07 01:00:26;;;;;;;20.65;3.03;;;;;;;-146.64;100.00;39824.91;5047799;28;20082;-76
2021/12/07 01:02:54;;;;;;;22.73;3.85;;;;;;;-146.64;100.00;39804.44;5072482;28;20033;-75
2021/12/07 01:05:26;;;;;;;19.80;2.83;;;;;;;-146.64;100.00;39708.25;5055181;28;20396;-75
2021/12/07 01:26:54;;;;;;;33.15;4.45;;;;;;;-146.64;100.00;39777.84;5061824;28;20031;-77
2021/12/07 01:29:23;;;;;;;23.63;3.92;;;;;;;-146.64;100.00;39800.34;5061316;28;20407;-76
2021/12/07 01:31:58;;;;;;;23.10;4.32;;;;;;;-146.64;100.00;39788.06;5050661;28;20040;-76
2021/12/07 01:37:32;;;;;;;22.23;3.90;;;;;;;-146.64;100.00;39800.34;5059489;28;20108;-76
2021/12/07 01:47:45;;;;;;;17.95;3.60;;;;;;;-146.64;100.00;39763.50;5059457;28;20025;-76
2021/12/07 02:00:50;;;;;;;21.63;3.40;;;;;;;-146.64;100.00;39763.50;5065274;28;20373;-78
2021/12/07 02:03:16;;;;;;;23.27;3.40;;;;;;;-146.64;100.00;39771.69;5043211;28;20536;-76
2021/12/07 02:05:42;;;;;;;21.40;3.37;;;;;;;-146.64;100.00;39812.63;5059502;28;20033;-76
2021/12/07 02:08:07;;;;;;;21.30;3.30;;;;;;;-146.64;100.00;39796.25;5053748;28;20519;-76
2021/12/07 02:10:33;;;;;;;27.42;5.30;;;;;;;-146.64;100.00;39806.50;5062733;28;20020;-77
2021/12/07 02:13:06;;;;;;;18.50;3.42;;;;;;;-146.64;100.00;39743.03;5052131;28;20040;-76
2021/12/07 02:15:33;;;;;;;15.02;3.10;;;;;;;-146.64;100.00;39695.97;5053904;28;20434;-77
2021/12/07 02:17:58;;;;;;;21.98;2.83;;;;;;;-146.64;100.00;39741.00;5061042;28;20502;-75
2021/12/07 02:20:27;;;;;;;23.05;3.88;;;;;;;-146.64;100.00;39763.50;5058016;28;20021;-77
2021/12/07 02:22:53;;;;;;;20.45;2.78;;;;;;;-146.64;100.00;39704.16;5056193;28;20020;-77
2021/12/07 02:25:19;;;;;;;17.15;3.00;;;;;;;-146.64;100.00;39771.69;5061918;28;20365;-76
2021/12/07 02:27:46;;;;;;;30.25;3.55;;;;;;;-146.64;100.00;39757.38;5053226;28;20020;-76
2021/12/07 02:30:13;;;;;;;;;;;;;;;-146.64;100.00;39761.47;5067869;28;20498;-76
2021/12/07 02:32:40;;;;;;;19.88;3.42;;;;;;;-146.64;100.00;39775.78;5065604;28;19916;-76
2021/12/07 02:35:06;;;;;;;17.65;4.03;;;;;;;-146.64;100.00;39796.25;5064415;28;20060;-76
2021/12/07 02:37:34;;;;;;;14.30;3.50;;;;;;;-146.64;100.00;39824.91;5066763;28;20032;-76
2021/12/07 02:40:00;;;;;;;19.40;3.40;;;;;;;-146.64;100.00;39802.41;5061139;28;20037;-77
2021/12/07 02:42:27;;;;;;;19.58;3.67;;;;;;;-146.64;100.00;39826.97;5053890;28;20099;-76
2021/12/07 02:44:52;;;;;;;18.17;4.15;;;;;;;-146.64;100.00;39812.63;5033956;28;20040;-76
2021/12/07 02:47:18;;;;;;;34.03;3.75;;;;;;;-146.64;100.00;39833.09;5036766;28;20024;-76
2021/12/07 02:49:44;;;;;;;16.23;3.42;;;;;;;-146.64;100.00;39751.22;5051313;28;20048;-75
2021/12/07 02:52:10;;;;;;;24.48;3.58;;;;;;;-146.64;100.00;39837.19;5039338;28;20049;-77
2021/12/07 02:54:43;;;;;;;25.98;3.47;;;;;;;-146.64;100.00;39790.13;5058055;28;20536;-76
2021/12/07 02:57:08;;;;;;;15.00;2.95;;;;;;;-146.64;100.00;39826.97;5056901;28;20545;-77
2021/12/07 02:59:34;;;;;;;19.10;3.25;;;;;;;-146.64;100.00;39816.72;5054247;28;20103;-77
2021/12/07 03:02:06;;;;;;;17.75;3.55;;;;;;;-146.64;100.00;39849.47;5056731;28;20071;-76
2021/12/07 03:04:39;;;;;;;14.00;3.83;;;;;;;-146.64;100.00;39865.84;5057657;28;20094;-76
2021/12/07 03:26:06;;;;;;;22.50;2.88;;;;;;;-146.64;100.00;39884.28;5054496;28;20031;-76
2021/12/07 03:28:34;;;;;;;34.47;4.47;;;;;;;-146.64;100.00;39837.19;5049950;28;20024;-77
2021/12/07 03:31:00;;;;;;;25.05;3.42;;;;;;;-146.64;100.00;39835.16;5059803;28;20063;-77
2021/12/07 03:33:27;;;;;;;21.60;3.78;;;;;;;-146.64;100.00;39849.47;5064393;28;20036;-75
2021/12/07 03:35:53;;;;;;;15.80;2.95;;;;;;;-146.64;100.00;39865.84;5063508;28;20040;-75
2021/12/07 03:38:18;;;;;;;27.10;3.77;;;;;;;-146.64;100.00;39851.53;5057388;28;20029;-76
2021/12/07 03:40:44;;;;;;;20.92;3.42;;;;;;;-146.64;100.00;39849.47;5057829;28;20017;-76
2021/12/07 03:43:10;;;;;;;23.63;3.08;;;;;;;-146.64;100.00;39839.25;5061494;28;20145;-76
2021/12/07 03:45:36;;;;;;;22.73;3.40;;;;;;;-146.64;100.00;39831.06;5068001;28;20035;-75
2021/12/07 03:48:03;;;;;;;20.17;2.80;;;;;;;-146.64;100.00;39841.28;5032152;28;20480;-75
2021/12/07 03:50:29;;;;;;;24.98;3.50;;;;;;;-146.64;100.00;39841.28;5066614;28;20045;-76
2021/12/07 03:52:55;;;;;;;18.70;2.75;;;;;;;-146.64;100.00;39808.53;5053703;28;20033;-75
2021/12/07 03:55:21;;;;;;;18.02;3.28;;;;;;;-146.64;100.00;39820.81;5064450;28;20103;-75
2021/12/07 03:57:46;;;;;;;19.10;3.05;;;;;;;-146.64;100.00;39824.91;5066002;28;20609;-76
2021/12/07 04:00:16;;;;;;;18.70;3.50;;;;;;;-146.64;100.00;39802.41;5055569;28;20494;-76
2021/12/07 04:02:42;;;;;;;14.50;3.03;;;;;;;-146.64;100.00;39824.91;5049829;28;20124;-75
2021/12/07 04:05:13;;;;;;;12.25;3.13;;;;;;;-146.64;100.00;39794.22;5037833;28;20060;-75
2021/12/07 04:07:39;;;;;;;20.83;2.90;;;;;;;-146.64;100.00;39829.00;5051817;28;20088;-76
2021/12/07 04:10:06;;;;;;;21.15;3.55;;;;;;;-146.64;100.00;39816.72;5041684;28;20079;-75
2021/12/07 04:12:33;;;;;;;23.05;3.72;;;;;;;-146.64;100.00;39824.91;5054073;28;20069;-75
2021/12/07 04:14:58;;;;;;;17.67;2.83;;;;;;;-146.64;100.00;39857.66;5061356;28;20040;-76
2021/12/07 04:17:25;;;;;;;29.63;3.30;;;;;;;-146.64;100.00;39839.25;5060003;28;20045;-75
2021/12/07 04:19:51;;;;;;;24.88;3.72;;;;;;;-146.64;100.00;39882.22;5063202;28;20120;-76
2021/12/07 04:22:17;;;;;;;19.15;3.72;;;;;;;-146.64;100.00;39851.53;5069087;28;20044;-75
2021/12/07 04:24:42;;;;;;;23.35;2.75;;;;;;;-146.64;100.00;39831.06;5066672;28;20037;-75
2021/12/07 04:27:08;;;;;;;18.10;2.47;;;;;;;-146.64;100.00;39833.09;5066540;28;20040;-75
2021/12/07 04:29:33;;;;;;;17.02;3.83;;;;;;;-146.64;100.00;39833.09;5063272;28;20068;-76
2021/12/07 04:31:58;;;;;;;22.80;2.75;;;;;;;-146.64;100.00;39826.97;5061814;28;20033;-75
2021/12/07 04:34:24;;;;;;;14.40;2.85;;;;;;;-146.64;100.00;39835.16;5062604;28;20025;-75
2021/12/07 04:36:49;;;;;;;26.95;3.97;;;;;;;-146.64;100.00;39853.56;5063517;28;20078;-76
2021/12/07 04:39:14;;;;;;;22.90;3.13;;;;;;;-146.64;100.00;39894.50;5053258;28;20036;-75
2021/12/07 04:41:43;;;;;;;14.90;2.80;;;;;;;-146.64;100.00;39865.84;5051732;28;20468;-75
2021/12/07 04:44:08;;;;;;;22.33;3.55;;;;;;;-146.64;100.00;39831.06;5047350;28;20184;-75
2021/12/07 04:46:40;;;;;;;26.08;3.83;;;;;;;-146.64;100.00;39847.44;5051952;28;20484;-76
2021/12/07 04:49:42;;;;;;;17.67;3.38;;;;;;;-146.64;100.00;39876.09;5054057;28;20039;-75
2021/12/07 05:00:10;;;;;;;25.55;3.45;;;;;;;-146.64;100.00;39849.47;5071455;28;20547;-75
2021/12/07 05:02:38;;;;;;;23.83;3.75;;;;;;;-146.64;100.00;39865.84;5048658;28;20025;-75
2021/12/07 05:05:05;;;;;;;19.67;3.05;;;;;;;-146.64;100.00;39855.63;5040915;28;20039;-77
2021/12/07 05:07:38;;;;;;;17.42;2.78;;;;;;;-146.64;100.00;39898.59;5052662;28;20155;-75
2021/12/07 05:12:56;;;;;;;17.52;2.50;;;;;;;-146.64;100.00;39874.03;5058856;28;20067;-75
2021/12/07 05:16:10;;;;;;;12.55;2.22;;;;;;;-146.64;100.00;39882.22;5054612;28;20128;-75
2021/12/07 05:39:32;;;;;;;24.63;3.75;;;;;;;-146.64;100.00;39878.13;5062226;28;20031;-75
2021/12/07 05:41:58;;;;;;;23.05;3.92;;;;;;;-146.64;100.00;39896.56;5039680;28;20028;-75
2021/12/07 05:44:23;;;;;;;18.77;3.25;;;;;;;-146.64;100.00;39890.41;5043813;28;20068;-75
2021/12/07 05:46:50;;;;;;;21.55;2.95;;;;;;;-146.64;100.00;39867.91;5046468;28;20035;-75
2021/12/07 05:49:15;;;;;;;24.95;3.80;;;;;;;-146.64;100.00;39824.91;5040576;28;20036;-76
2021/12/07 05:51:41;;;;;;;13.95;2.83;;;;;;;-146.64;100.00;39865.84;5063655;28;20032;-77
2021/12/07 05:54:06;;;;;;;16.77;3.22;;;;;;;-146.64;100.00;39886.31;5059928;28;20070;-76
2021/12/07 05:56:32;;;;;;;18.40;4.28;;;;;;;-146.64;100.00;39865.84;5064400;28;20111;-76
2021/12/07 05:58:58;;;;;;;24.48;2.95;;;;;;;-146.64;100.00;39906.78;5067238;28;20028;-76
2021/12/07 06:01:23;;;;;;;11.32;3.50;;;;;;;-146.64;100.00;39890.41;5046526;28;20025;-75
2021/12/07 06:03:48;;;;;;;21.88;2.95;;;;;;;-146.64;100.00;39878.13;5062759;28;20353;-76
2021/12/07 06:06:14;;;;;;;24.05;3.42;;;;;;;-146.64;100.00;39906.78;5052665;28;20400;-76
2021/12/07 06:08:39;;;;;;;13.18;3.45;;;;;;;-146.64;100.00;39931.34;5051422;28;20483;-76
2021/12/07 06:11:04;;;;;;;14.48;4.15;;;;;;;-146.64;100.00;39927.25;5047167;28;20028;-76
2021/12/07 06:13:30;;;;;;;12.18;2.58;;;;;;;-146.64;100.00;39914.97;5064554;28;20037;-75
2021/12/07 06:15:57;;;;;;;14.27;2.72;;;;;;;-146.64;100.00;39939.53;5042603;28;20401;-76
2021/12/07 06:18:22;;;;;;;13.25;2.58;;;;;;;-146.64;100.00;39927.25;5050483;28;20106;-76
2021/12/07 06:20:47;;;;;;;13.68;2.55;;;;;;;-146.64;100.00;39951.81;5035098;28;20485;-75
2021/12/07 06:23:16;;;;;;;13.88;2.60;;;;;;;-146.64;100.00;39927.25;5059249;28;20099;-75
2021/12/07 06:25:42;;;;;;;13.05;2.60;;;;;;;-146.64;100.00;39953.88;5058165;28;20072;-75
2021/12/07 06:28:08;;;;;;;18.55;2.25;;;;;;;-146.64;100.00;39939.53;5054392;28;20394;-75
2021/12/07 06:30:33;;;;;;;18.15;3.00;;;;;;;-146.64;100.00;39927.25;5033361;28;20406;-76
2021/12/07 06:32:59;;;;;;;20.48;2.83;;;;;;;-146.64;100.00;39960.00;5078435;28;20028;-76
2021/12/07 06:35:24;;;;;;;22.67;2.83;;;;;;;-146.64;100.00;39925.22;5060641;28;20354;-75
2021/12/07 06:37:49;;;;;;;16.20;3.38;;;;;;;-146.64;100.00;39953.88;5059062;28;20025;-75
2021/12/07 06:40:14;;;;;;;22.20;2.80;;;;;;;-146.64;100.00;39931.34;5053580;28;20040;-76
2021/12/07 06:42:40;;;;;;;17.75;3.13;;;;;;;-146.64;100.00;39902.69;5057270;28;20132;-76
2021/12/07 06:45:10;;;;;;;16.10;3.05;;;;;;;-146.64;100.00;39906.78;5053558;28;20032;-75
2021/12/07 06:47:36;;;;;;;21.80;4.03;;;;;;;-146.64;100.00;39896.56;5054486;28;20131;-76
2021/12/07 06:50:04;;;;;;;17.10;2.90;;;;;;;-146.64;100.00;39947.72;5041311;28;20044;-76
2021/12/07 06:52:30;;;;;;;16.98;3.72;;;;;;;-146.64;100.00;39957.97;5045137;28;20032;-75
2021/12/07 06:54:57;;;;;;;15.15;2.45;;;;;;;-146.64;100.00;39972.28;5052361;28;20055;-75
2021/12/07 06:57:23;;;;;;;19.58;3.20;;;;;;;-146.64;100.00;39935.44;5056156;28;20065;-75
2021/12/07 06:59:48;;;;;;;14.07;2.90;;;;;;;-146.64;100.00;39941.59;5051624;28;20537;-75
2021/12/07 07:02:13;;;;;;;17.45;3.80;;;;;;;-146.64;100.00;39927.25;5052741;28;20075;-75
2021/12/07 07:04:39;;;;;;;25.77;3.75;;;;;;;-146.64;100.00;39937.50;5061690;28;20025;-76
2021/12/07 07:07:04;;;;;;;11.63;3.35;;;;;;;-146.64;100.00;39941.59;5057314;28;20119;-75
2021/12/07 07:09:30;;;;;;;12.60;3.15;;;;;;;-146.64;100.00;39902.69;5067558;28;20548;-75
2021/12/07 07:11:55;;;;;;;15.15;2.72;;;;;;;-146.64;100.00;39976.38;5066145;28;20043;-75
2021/12/07 07:14:20;;;;;;;18.52;2.10;;;;;;;-146.64;100.00;39968.19;5058398;28;20043;-75
2021/12/07 07:16:46;;;;;;;24.15;3.13;;;;;;;-146.64;100.00;39947.72;5059006;28;20033;-75
2021/12/07 07:19:11;;;;;;;11.82;3.38;;;;;;;-146.64;100.00;39964.09;5067007;28;20421;-75
2021/12/07 07:21:36;;;;;;;23.00;2.35;;;;;;;-146.64;100.00;39960.00;5052991;28;20432;-75
2021/12/07 07:24:02;;;;;;;20.73;4.18;;;;;;;-146.64;100.00;39947.72;5052792;28;20103;-75
2021/12/07 07:26:28;;;;;;;24.40;3.50;;;;;;;-146.64;100.00;39947.72;5049059;28;20025;-75
2021/12/07 07:28:53;;;;;;;17.45;3.92;;;;;;;-146.64;100.00;39935.44;5034842;28;20324;-75
2021/12/07 07:31:19;;;;;;;18.10;3.35;;;;;;;-146.64;100.00;39976.38;5066087;28;20025;-75
2021/12/07 07:33:44;;;;;;;20.48;3.60;;;;;;;-146.64;100.00;39949.78;5064519;28;20073;-75
2021/12/07 07:36:09;;;;;;;22.35;3.15;;;;;;;-146.64;100.00;39861.75;5058229;28;20037;-75
2021/12/07 07:38:35;;;;;;;20.30;3.00;;;;;;;-146.64;100.00;39951.81;5046606;28;20435;-75
2021/12/07 07:41:00;;;;;;;15.73;4.05;;;;;;;-146.64;100.00;39966.16;5060377;28;20498;-75
2021/12/07 07:43:26;;;;;;;25.08;3.60;;;;;;;-146.64;100.00;40000.94;5052223;28;20034;-75
2021/12/07 07:45:52;;;;;;;19.80;3.38;;;;;;;-146.64;100.00;39984.56;5053343;28;20035;-75
2021/12/07 07:48:18;;;;;;;22.02;4.22;;;;;;;-146.64;100.00;39935.44;5057163;28;20055;-75
2021/12/07 07:50:44;;;;;;;11.30;2.83;;;;;;;-146.64;100.00;39935.44;5059284;28;20040;-75
2021/12/07 07:53:09;;;;;;;15.02;3.28;;;;;;;-146.64;100.00;39955.91;5067513;28;20042;-75
2021/12/07 07:55:39;;;;;;;20.45;3.65;;;;;;;-146.64;100.00;39943.63;5068634;28;20078;-75
2021/12/07 07:58:05;;;;;;;17.42;4.03;;;;;;;-146.64;100.00;39935.44;5054559;28;20024;-75
2021/12/07 08:00:31;;;;;;;19.90;3.90;;;;;;;-146.64;100.00;39953.88;5042749;28;20031;-75
2021/12/07 08:02:56;;;;;;;30.63;4.95;;;;;;;-146.64;100.00;39890.41;5065826;28;20032;-75
2021/12/07 08:05:22;;;;;;;37.70;4.97;;;;;;;-146.64;100.00;39964.09;5053916;28;20417;-75
2021/12/07 08:07:48;;;;;;;23.20;5.28;;;;;;;-146.64;100.00;39923.16;5057109;28;20025;-75
2021/12/07 08:10:16;;;;;;;23.15;4.22;;;;;;;-146.64;100.00;39931.34;5051458;28;20025;-75
2021/12/07 08:12:42;;;;;;;25.20;5.38;;;;;;;-146.64;100.00;39951.81;5053456;28;20027;-75
2021/12/07 08:15:08;;;;;;;23.80;6.13;;;;;;;-146.64;100.00;39906.78;5065970;28;20024;-75
2021/12/07 08:17:33;;;;;;;22.42;5.18;;;;;;;-146.64;100.00;39919.06;5036041;28;20029;-75
2021/12/07 08:19:59;;;;;;;27.42;5.70;;;;;;;-146.64;100.00;39939.53;5037156;28;20021;-77
2021/12/07 08:22:24;;;;;;;25.25;5.88;;;;;;;-146.64;100.00;39878.13;5037333;28;20467;-75
2021/12/07 08:24:50;;;;;;;28.05;7.05;;;;;;;-146.64;100.00;39894.50;5050576;28;20121;-75
2021/12/07 08:27:16;;;;;;;30.88;6.03;;;;;;;-146.64;100.00;39808.53;5066312;28;20384;-76
2021/12/07 08:29:41;;;;;;;29.63;7.88;;;;;;;-146.64;100.00;39927.25;5054388;28;20025;-76
2021/12/07 08:32:07;;;;;;;39.67;8.10;;;;;;;-146.64;100.00;39892.47;5046852;28;20032;-76
2021/12/07 08:34:32;;;;;;;33.88;8.63;;;;;;;-146.64;100.00;39902.69;5055102;28;20032;-75
2021/12/07 08:36:57;;;;;;;38.00;8.73;;;;;;;-146.64;100.00;39872.00;5063824;28;20040;-77
2021/12/07 08:39:23;;;;;;;33.35;9.05;;;;;;;-146.64;100.00;39859.72;5038824;28;20040;-77
2021/12/07 08:41:48;;;;;;;37.13;8.88;;;;;;;-146.64;100.00;39824.91;5070148;28;20021;-76
2021/12/07 08:44:14;;;;;;;44.88;8.75;;;;;;;-146.64;100.00;39824.91;5047291;28;20083;-76
2021/12/07 08:46:39;;;;;;;36.85;8.77;;;;;;;-146.64;100.00;39841.28;5059380;28;20747;-76
2021/12/07 08:49:04;;;;;;;35.40;9.00;;;;;;;-146.64;100.00;39808.53;5071167;28;20032;-76
2021/12/07 08:51:30;;;;;;;41.80;10.00;;;;;;;-146.64;100.00;39829.00;5048795;28;20045;-76
2021/12/07 08:54:02;;;;;;;51.28;10.27;;;;;;;-146.64;100.00;39783.97;5056838;28;20024;-76
2021/12/07 09:01:56;;;;;;;27.65;10.07;;;;;;;-146.64;100.00;39812.63;5067611;28;20036;-76
2021/12/07 09:04:21;;;;;;;42.03;10.05;;;;;;;-146.64;100.00;39814.69;5036156;28;20029;-76
2021/12/07 09:06:50;;;;;;;36.05;11.57;;;;;;;-146.64;100.00;39804.44;5050632;28;20100;-76
2021/12/07 09:09:16;;;;;;;45.35;10.80;;;;;;;-146.64;100.00;39779.88;5039280;28;20032;-76
2021/12/07 09:11:42;;;;;;;42.22;11.38;;;;;;;-146.64;100.00;39802.41;5043542;28;20484;-76
2021/12/07 09:14:14;;;;;;;46.17;11.30;;;;;;;-146.64;100.00;39800.34;5064591;28;20028;-75
2021/12/07 09:16:39;;;;;;;51.60;11.00;;;;;;;-146.64;100.00;39755.31;5057975;28;20016;-76
2021/12/07 09:19:05;;;;;;;46.10;13.30;;;;;;;-146.64;100.00;39788.06;5048907;28;20378;-76
2021/12/07 09:21:30;;;;;;;44.22;11.00;;;;;;;-146.64;100.00;39781.94;5050979;28;20025;-76
2021/12/07 09:23:56;;;;;;;50.20;12.13;;;;;;;-146.64;100.00;39751.22;5044001;28;20111;-76
2021/12/07 09:26:21;;;;;;;49.60;13.18;;;;;;;-146.64;100.00;39745.09;5051222;28;20515;-76
2021/12/07 09:28:47;;;;;;;52.80;12.93;;;;;;;-146.64;100.00;39779.88;5055284;28;20519;-76
2021/12/07 09:31:13;;;;;;;44.88;12.27;;;;;;;-146.64;100.00;39763.50;5057840;28;20329;-76
2021/12/07 09:33:41;;;;;;;64.03;13.45;;;;;;;-146.64;100.00;39734.84;5052150;28;20036;-76
2021/12/07 09:36:08;;;;;;;65.50;14.27;;;;;;;-146.64;100.00;39743.03;5068376;28;20032;-76
2021/12/07 09:38:33;;;;;;;;;;;;;;;-146.64;100.00;39755.31;5069858;28;20020;-76
2021/12/07 09:40:59;;;;;;;52.72;13.95;;;;;;;-146.64;100.00;39738.94;5042385;28;19938;-76
2021/12/07 09:43:24;;;;;;;60.55;16.13;;;;;;;-146.64;100.00;39722.56;5040789;28;20036;-76
2021/12/07 09:45:50;;;;;;;66.85;13.70;;;;;;;-146.64;100.00;39716.44;5057717;28;20630;-76
2021/12/07 09:48:15;;;;;;;57.10;13.32;;;;;;;-146.64;100.00;39728.72;5051419;28;20028;-76
2021/12/07 09:50:44;;;;;;;54.70;13.27;;;;;;;-146.64;100.00;39724.63;5053787;28;20045;-76
2021/12/07 09:53:11;;;;;;;58.33;13.55;;;;;;;-146.64;100.00;39722.56;5063484;28;20032;-76
2021/12/07 09:55:38;;;;;;;58.00;14.27;;;;;;;-146.64;100.00;39673.44;5054417;28;20464;-76
2021/12/07 09:58:04;;;;;;;51.10;12.98;;;;;;;-146.64;100.00;39677.53;5060732;28;20037;-76
2021/12/07 10:00:31;;;;;;;41.38;12.05;;;;;;;-146.64;100.00;39673.44;5060907;28;20025;-76
2021/12/07 10:02:56;;;;;;;56.08;12.75;;;;;;;-146.64;100.00;39603.84;5056834;28;20032;-76
2021/12/07 10:05:24;;;;;;;41.65;11.88;;;;;;;-146.64;100.00;39681.63;5062370;28;20059;-76
2021/12/07 10:07:51;;;;;;;47.05;11.95;;;;;;;-146.64;100.00;39661.16;5037690;28;20476;-76
2021/12/07 10:10:27;;;;;;;52.40;11.82;;;;;;;-146.64;100.00;39644.78;5049345;28;20060;-76
2021/12/07 10:12:52;;;;;;;56.97;13.30;;;;;;;-146.64;100.00;39652.97;5033291;28;20045;-76
2021/12/07 10:15:18;;;;;;;44.42;12.75;;;;;;;-146.64;100.00;39612.03;5052376;28;20029;-77
2021/12/07 10:17:44;;;;;;;49.03;12.57;;;;;;;-146.64;100.00;39636.59;5049804;28;20112;-77
2021/12/07 10:20:33;;;;;;;48.27;12.17;;;;;;;-146.64;100.00;39628.41;5047119;28;20105;-76
2021/12/07 10:23:28;;;;;;;46.15;12.40;;;;;;;-146.64;100.00;39599.75;5062591;28;20266;-76
2021/12/07 10:25:56;;;;;;;52.95;12.93;;;;;;;-146.64;100.00;39593.63;5050173;28;20040;-76
2021/12/07 10:29:01;;;;;;;64.38;14.55;;;;;;;-146.64;100.00;39591.56;5063860;28;20119;-76
2021/12/07 10:31:34;;;;;;;44.88;10.27;;;;;;;-146.64;100.00;39554.72;5038211;28;20183;-75
2021/12/07 10:34:06;;;;;;;48.35;11.68;;;;;;;-146.64;100.00;39538.34;5038620;28;20036;-76
2021/12/07 10:36:41;;;;;;;41.70;11.07;;;;;;;-146.64;100.00;39546.53;5048011;28;20025;-76
2021/12/07 10:39:19;;;;;;;52.00;11.20;;;;;;;-146.64;100.00;39562.91;5049721;28;20021;-75
2021/12/07 10:41:51;;;;;;;40.95;11.15;;;;;;;-146.64;100.00;39511.75;5048768;28;20016;-75
2021/12/07 10:44:21;;;;;;;40.15;9.32;;;;;;;-146.64;100.00;39493.34;5049007;28;20028;-75
2021/12/07 10:46:52;;;;;;;25.17;8.43;;;;;;;-146.64;100.00;39509.72;5068105;28;20024;-75
2021/12/07 10:49:43;;;;;;;23.63;7.25;;;;;;;-146.64;100.00;39505.63;5054967;28;20048;-75
2021/12/07 10:52:24;;;;;;;28.00;6.75;;;;;;;-146.64;100.00;39517.91;5039124;28;20392;-75
2021/12/07 10:55:10;;;;;;;21.13;6.20;;;;;;;-146.64;100.00;39454.44;5054122;28;20032;-75
2021/12/07 10:57:54;;;;;;;25.85;5.15;;;;;;;-146.64;100.00;39468.78;5059410;28;20036;-75
2021/12/07 11:00:33;;;;;;;16.70;4.30;;;;;;;-146.64;100.00;39476.97;5052721;28;20518;-75
2021/12/07 11:03:02;;;;;;;23.35;5.35;;;;;;;-146.64;100.00;39476.97;5056438;28;20587;-75
2021/12/07 11:05:32;;;;;;;18.13;5.47;;;;;;;-146.64;100.00;39460.59;5033401;28;20029;-75
2021/12/07 11:08:00;;;;;;;22.20;4.53;;;;;;;-146.64;100.00;39485.16;5050109;28;20112;-75
2021/12/07 11:10:30;;;;;;;19.77;5.22;;;;;;;-146.64;100.00;39438.06;5049883;28;20029;-75
2021/12/07 11:13:16;;;;;;;11.77;4.22;;;;;;;-146.64;100.00;39460.59;5040707;28;20132;-75
2021/12/07 11:15:50;;;;;;;18.17;5.80;;;;;;;-146.64;100.00;39415.56;5049007;28;20029;-76
2021/12/07 11:18:27;;;;;;;26.67;6.10;;;;;;;-146.64;100.00;39415.56;5065450;28;20028;-76
2021/12/07 11:20:54;;;;;;;14.60;4.90;;;;;;;-146.64;100.00;39411.47;5035486;28;20021;-75
2021/12/07 11:23:23;;;;;;;16.33;5.15;;;;;;;-146.64;100.00;39423.75;5048670;28;20021;-75
2021/12/07 11:31:26;;;;;;;23.83;5.88;;;;;;;-146.64;100.00;39440.13;5059685;28;20032;-76
2021/12/07 11:34:09;;;;;;;19.67;5.15;;;;;;;-146.64;100.00;39399.19;5061817;28;20033;-75
2021/12/07 11:36:39;;;;;;;19.08;6.43;;;;;;;-146.64;100.00;39403.28;5048440;28;20107;-76
2021/12/07 11:39:35;;;;;;;24.02;5.07;;;;;;;-146.64;100.00;39403.28;5031616;28;20048;-76
2021/12/07 11:42:09;;;;;;;18.75;5.22;;;;;;;-146.64;100.00;39366.44;5034300;28;20116;-75
2021/12/07 11:44:39;;;;;;;18.08;4.95;;;;;;;-146.64;100.00;39374.63;5055904;28;20033;-76
2021/12/07 11:47:05;;;;;;;27.13;5.18;;;;;;;-146.64;100.00;39370.53;5053004;28;20645;-76
2021/12/07 11:49:32;;;;;;;19.90;5.03;;;;;;;-146.64;100.00;39345.97;5065245;28;20107;-76
2021/12/07 11:52:01;;;;;;;19.38;4.30;;;;;;;-146.64;100.00;39335.75;5050423;28;20099;-76
2021/12/07 11:54:34;;;;;;;17.98;5.03;;;;;;;-146.64;100.00;39341.88;5051553;28;20045;-76
2021/12/07 11:57:02;;;;;;;16.55;5.90;;;;;;;-146.64;100.00;39321.41;5048992;28;20043;-76
2021/12/07 11:59:28;;;;;;;16.13;6.20;;;;;;;-146.64;100.00;39356.22;5035501;28;20112;-76
2021/12/07 12:01:54;;;;;;;21.73;5.10;;;;;;;-146.64;100.00;39343.94;5051664;28;20590;-75
2021/12/07 12:04:20;;;;;;;18.00;5.37;;;;;;;-146.64;100.00;39366.44;5061841;28;20021;-76
2021/12/07 12:06:47;;;;;;;13.90;4.73;;;;;;;-146.64;100.00;39370.53;5057520;28;20029;-76
2021/12/07 12:09:13;;;;;;;14.18;4.50;;;;;;;-146.64;100.00;39343.94;5048628;28;20021;-75
2021/12/07 12:11:56;;;;;;;13.52;4.68;;;;;;;-146.64;100.00;39339.84;5042059;28;20033;-75
2021/12/07 12:14:43;;;;;;;15.35;4.63;;;;;;;-146.64;100.00;39345.97;5051813;28;20033;-75
2021/12/07 12:17:29;;;;;;;17.70;5.20;;;;;;;-146.64;100.00;39345.97;5053173;28;20539;-76
2021/12/07 12:20:03;;;;;;;22.17;5.07;;;;;;;-146.64;100.00;39370.53;5020900;28;20127;-76
2021/12/07 12:22:37;;;;;;;19.42;4.50;;;;;;;-146.64;100.00;39386.91;5051530;28;20396;-75
2021/12/07 12:25:11;;;;;;;18.75;4.55;;;;;;;-146.64;100.00;39391.00;5057296;28;20025;-75
2021/12/07 12:27:37;;;;;;;13.98;3.97;;;;;;;-146.64;100.00;39354.16;5036527;28;20044;-75
2021/12/07 12:30:18;;;;;;;13.77;4.10;;;;;;;-146.64;100.00;39386.91;5051394;28;20107;-76
2021/12/07 12:32:53;;;;;;;18.02;5.25;;;;;;;-146.64;100.00;39395.09;5053620;28;20104;-76
2021/12/07 12:35:26;;;;;;;16.30;4.20;;;;;;;-146.64;100.00;39382.81;5051867;28;20033;-76
2021/12/07 12:37:51;;;;;;;18.73;4.88;;;;;;;-146.64;100.00;39368.50;5038329;28;20078;-75
2021/12/07 12:40:27;;;;;;;15.82;4.30;;;;;;;-146.64;100.00;39407.38;5055390;28;20029;-75
2021/12/07 12:42:54;;;;;;;18.20;3.67;;;;;;;-146.64;100.00;39407.38;5055822;28;20037;-76
2021/12/07 12:45:30;;;;;;;18.90;4.38;;;;;;;-146.64;100.00;39358.25;5055028;28;20024;-75
2021/12/07 12:48:06;;;;;;;21.60;4.68;;;;;;;-146.64;100.00;39411.47;5054618;28;20054;-76
2021/12/07 12:50:51;;;;;;;16.17;4.10;;;;;;;-146.64;100.00;39321.41;5051639;28;20452;-75